sensor_id;sensor_type;location;lat;lon;timestamp;temperature;humidity
21495;DHT22;10909;53.590;10.054;2023-05-17T00:00:10;12.50;71.40
21495;DHT22;10909;53.590;10.054;2023-05-17T00:02:36;12.50;71.10
21495;DHT22;10909;53.590;10.054;2023-05-17T00:05:02;12.50;70.90
21495;DHT22;10909;53.590;10.054;2023-05-17T00:07:28;12.50;70.70
21495;DHT22;10909;53.590;10.054;2023-05-17T00:09:53;12.40;70.50
21495;DHT22;10909;53.590;10.054;2023-05-17T00:12:21;12.40;70.30
21495;DHT22;10909;53.590;10.054;2023-05-17T00:14:47;12.40;70.10
21495;DHT22;10909;53.590;10.054;2023-05-17T00:17:12;12.40;70.10
21495;DHT22;10909;53.590;10.054;2023-05-17T00:19:38;12.30;70.00
21495;DHT22;10909;53.590;10.054;2023-05-17T00:22:03;12.30;69.90
21495;DHT22;10909;53.590;10.054;2023-05-17T00:24:29;12.20;69.80
21495;DHT22;10909;53.590;10.054;2023-05-17T00:26:55;12.20;69.90
21495;DHT22;10909;53.590;10.054;2023-05-17T00:29:20;12.20;70.00
21495;DHT22;10909;53.590;10.054;2023-05-17T00:31:46;12.20;70.00
21495;DHT22;10909;53.590;10.054;2023-05-17T00:34:12;12.20;70.10
21495;DHT22;10909;53.590;10.054;2023-05-17T00:36:37;12.20;70.10
21495;DHT22;10909;53.590;10.054;2023-05-17T00:39:03;12.20;70.10
21495;DHT22;10909;53.590;10.054;2023-05-17T00:41:29;12.20;70.10
21495;DHT22;10909;53.590;10.054;2023-05-17T00:43:54;12.20;70.00
21495;DHT22;10909;53.590;10.054;2023-05-17T00:46:20;12.20;69.90
21495;DHT22;10909;53.590;10.054;2023-05-17T00:48:46;12.20;70.00
21495;DHT22;10909;53.590;10.054;2023-05-17T00:51:12;12.10;70.10
21495;DHT22;10909;53.590;10.054;2023-05-17T00:53:38;12.10;70.10
21495;DHT22;10909;53.590;10.054;2023-05-17T00:56:05;12.10;70.10
21495;DHT22;10909;53.590;10.054;2023-05-17T00:58:31;12.10;70.20
21495;DHT22;10909;53.590;10.054;2023-05-17T01:00:58;12.10;70.40
21495;DHT22;10909;53.590;10.054;2023-05-17T01:03:24;12.10;70.40
21495;DHT22;10909;53.590;10.054;2023-05-17T01:05:50;12.20;70.50
21495;DHT22;10909;53.590;10.054;2023-05-17T01:08:17;12.10;70.40
21495;DHT22;10909;53.590;10.054;2023-05-17T01:17:00;12.20;70.10
21495;DHT22;10909;53.590;10.054;2023-05-17T01:22:14;12.20;69.90
21495;DHT22;10909;53.590;10.054;2023-05-17T01:27:33;12.20;70.50
21495;DHT22;10909;53.590;10.054;2023-05-17T01:30:01;12.20;69.70
21495;DHT22;10909;53.590;10.054;2023-05-17T01:32:27;12.10;69.60
21495;DHT22;10909;53.590;10.054;2023-05-17T01:34:54;12.10;69.60
21495;DHT22;10909;53.590;10.054;2023-05-17T01:37:20;12.10;69.70
21495;DHT22;10909;53.590;10.054;2023-05-17T01:39:45;12.00;69.70
21495;DHT22;10909;53.590;10.054;2023-05-17T01:42:21;12.00;69.70
21495;DHT22;10909;53.590;10.054;2023-05-17T01:50:13;12.00;69.50
21495;DHT22;10909;53.590;10.054;2023-05-17T01:52:52;11.90;69.40
21495;DHT22;10909;53.590;10.054;2023-05-17T01:58:02;11.80;69.40
21495;DHT22;10909;53.590;10.054;2023-05-17T02:00:30;11.70;69.30
21495;DHT22;10909;53.590;10.054;2023-05-17T02:02:57;11.60;69.30
21495;DHT22;10909;53.590;10.054;2023-05-17T02:05:22;11.60;69.30
21495;DHT22;10909;53.590;10.054;2023-05-17T02:07:48;11.60;69.30
21495;DHT22;10909;53.590;10.054;2023-05-17T02:10:14;11.50;69.40
21495;DHT22;10909;53.590;10.054;2023-05-17T02:12:39;11.50;69.40
21495;DHT22;10909;53.590;10.054;2023-05-17T02:15:05;11.50;69.40
21495;DHT22;10909;53.590;10.054;2023-05-17T02:17:32;11.50;69.40
21495;DHT22;10909;53.590;10.054;2023-05-17T02:19:58;11.50;69.50
21495;DHT22;10909;53.590;10.054;2023-05-17T02:22:24;11.40;69.40
21495;DHT22;10909;53.590;10.054;2023-05-17T02:24:49;11.50;69.40
21495;DHT22;10909;53.590;10.054;2023-05-17T02:27:15;11.50;69.40
21495;DHT22;10909;53.590;10.054;2023-05-17T02:29:40;11.40;69.20
21495;DHT22;10909;53.590;10.054;2023-05-17T02:32:08;11.40;69.00
21495;DHT22;10909;53.590;10.054;2023-05-17T02:34:33;11.40;68.90
21495;DHT22;10909;53.590;10.054;2023-05-17T02:36:59;11.40;68.90
21495;DHT22;10909;53.590;10.054;2023-05-17T02:39:25;11.30;68.90
21495;DHT22;10909;53.590;10.054;2023-05-17T02:41:54;11.30;68.80
21495;DHT22;10909;53.590;10.054;2023-05-17T02:44:23;11.30;68.80
21495;DHT22;10909;53.590;10.054;2023-05-17T02:46:50;11.20;68.70
21495;DHT22;10909;53.590;10.054;2023-05-17T02:49:16;11.20;68.70
21495;DHT22;10909;53.590;10.054;2023-05-17T02:51:42;11.20;68.60
21495;DHT22;10909;53.590;10.054;2023-05-17T02:54:07;11.20;68.60
21495;DHT22;10909;53.590;10.054;2023-05-17T02:56:33;11.20;68.60
21495;DHT22;10909;53.590;10.054;2023-05-17T02:58:59;11.10;68.50
21495;DHT22;10909;53.590;10.054;2023-05-17T03:01:26;11.10;68.70
21495;DHT22;10909;53.590;10.054;2023-05-17T03:03:52;11.10;68.70
21495;DHT22;10909;53.590;10.054;2023-05-17T03:06:18;11.00;68.60
21495;DHT22;10909;53.590;10.054;2023-05-17T03:08:43;11.00;68.50
21495;DHT22;10909;53.590;10.054;2023-05-17T03:11:09;11.00;68.40
21495;DHT22;10909;53.590;10.054;2023-05-17T03:13:35;11.00;68.50
21495;DHT22;10909;53.590;10.054;2023-05-17T03:16:02;10.90;68.10
21495;DHT22;10909;53.590;10.054;2023-05-17T03:18:27;10.90;68.10
21495;DHT22;10909;53.590;10.054;2023-05-17T03:20:53;10.90;68.20
21495;DHT22;10909;53.590;10.054;2023-05-17T03:23:19;10.90;68.20
21495;DHT22;10909;53.590;10.054;2023-05-17T03:25:45;10.80;68.20
21495;DHT22;10909;53.590;10.054;2023-05-17T03:28:11;10.80;68.40
21495;DHT22;10909;53.590;10.054;2023-05-17T03:30:37;10.80;68.20
21495;DHT22;10909;53.590;10.054;2023-05-17T03:33:02;10.80;68.30
21495;DHT22;10909;53.590;10.054;2023-05-17T03:35:28;10.80;68.20
21495;DHT22;10909;53.590;10.054;2023-05-17T03:37:53;10.80;68.20
21495;DHT22;10909;53.590;10.054;2023-05-17T03:40:19;10.80;68.40
21495;DHT22;10909;53.590;10.054;2023-05-17T03:42:45;10.90;68.40
21495;DHT22;10909;53.590;10.054;2023-05-17T03:45:10;10.90;68.30
21495;DHT22;10909;53.590;10.054;2023-05-17T03:47:37;10.90;67.90
21495;DHT22;10909;53.590;10.054;2023-05-17T03:50:03;10.90;67.90
21495;DHT22;10909;53.590;10.054;2023-05-17T03:52:30;10.90;67.60
21495;DHT22;10909;53.590;10.054;2023-05-17T03:54:57;10.90;67.70
21495;DHT22;10909;53.590;10.054;2023-05-17T03:57:23;10.90;67.60
21495;DHT22;10909;53.590;10.054;2023-05-17T03:59:51;10.90;67.50
21495;DHT22;10909;53.590;10.054;2023-05-17T04:02:18;10.80;67.60
21495;DHT22;10909;53.590;10.054;2023-05-17T04:04:48;10.90;67.70
21495;DHT22;10909;53.590;10.054;2023-05-17T04:07:14;10.90;67.60
21495;DHT22;10909;53.590;10.054;2023-05-17T04:09:41;10.80;67.70
21495;DHT22;10909;53.590;10.054;2023-05-17T04:12:07;10.80;67.70
21495;DHT22;10909;53.590;10.054;2023-05-17T04:14:35;10.80;67.80
21495;DHT22;10909;53.590;10.054;2023-05-17T04:17:02;10.80;67.90
21495;DHT22;10909;53.590;10.054;2023-05-17T04:19:28;10.80;68.50
21495;DHT22;10909;53.590;10.054;2023-05-17T04:21:53;10.80;67.80
21495;DHT22;10909;53.590;10.054;2023-05-17T04:24:19;10.80;67.50
21495;DHT22;10909;53.590;10.054;2023-05-17T04:26:45;10.80;67.70
21495;DHT22;10909;53.590;10.054;2023-05-17T04:29:11;10.90;67.90
21495;DHT22;10909;53.590;10.054;2023-05-17T04:31:36;10.90;68.00
21495;DHT22;10909;53.590;10.054;2023-05-17T04:34:02;10.90;67.80
21495;DHT22;10909;53.590;10.054;2023-05-17T04:36:27;10.90;67.80
21495;DHT22;10909;53.590;10.054;2023-05-17T04:38:54;11.00;67.50
21495;DHT22;10909;53.590;10.054;2023-05-17T04:41:20;11.00;67.70
21495;DHT22;10909;53.590;10.054;2023-05-17T04:43:46;11.10;67.10
21495;DHT22;10909;53.590;10.054;2023-05-17T04:46:12;11.10;67.00
21495;DHT22;10909;53.590;10.054;2023-05-17T04:48:38;11.20;66.80
21495;DHT22;10909;53.590;10.054;2023-05-17T04:51:04;11.20;66.70
21495;DHT22;10909;53.590;10.054;2023-05-17T04:53:31;11.20;66.40
21495;DHT22;10909;53.590;10.054;2023-05-17T04:55:57;11.30;65.80
21495;DHT22;10909;53.590;10.054;2023-05-17T04:58:27;11.30;66.10
21495;DHT22;10909;53.590;10.054;2023-05-17T05:00:52;11.40;66.40
21495;DHT22;10909;53.590;10.054;2023-05-17T05:03:18;11.40;66.10
21495;DHT22;10909;53.590;10.054;2023-05-17T05:05:44;11.40;65.70
21495;DHT22;10909;53.590;10.054;2023-05-17T05:08:09;11.40;65.80
21495;DHT22;10909;53.590;10.054;2023-05-17T05:10:35;11.40;65.50
21495;DHT22;10909;53.590;10.054;2023-05-17T05:13:07;11.50;65.50
21495;DHT22;10909;53.590;10.054;2023-05-17T05:15:33;11.50;66.00
21495;DHT22;10909;53.590;10.054;2023-05-17T05:17:58;11.60;66.00
21495;DHT22;10909;53.590;10.054;2023-05-17T05:20:24;11.60;66.00
21495;DHT22;10909;53.590;10.054;2023-05-17T05:22:50;11.60;65.80
21495;DHT22;10909;53.590;10.054;2023-05-17T05:25:17;11.70;65.90
21495;DHT22;10909;53.590;10.054;2023-05-17T05:27:56;11.70;66.10
21495;DHT22;10909;53.590;10.054;2023-05-17T05:30:35;11.80;66.30
21495;DHT22;10909;53.590;10.054;2023-05-17T05:33:01;11.80;66.10
21495;DHT22;10909;53.590;10.054;2023-05-17T05:35:27;11.80;66.70
21495;DHT22;10909;53.590;10.054;2023-05-17T05:37:55;11.80;65.20
21495;DHT22;10909;53.590;10.054;2023-05-17T05:40:21;11.90;65.50
21495;DHT22;10909;53.590;10.054;2023-05-17T05:42:47;11.90;65.50
21495;DHT22;10909;53.590;10.054;2023-05-17T05:45:15;11.90;65.90
21495;DHT22;10909;53.590;10.054;2023-05-17T05:47:46;11.90;66.00
21495;DHT22;10909;53.590;10.054;2023-05-17T05:50:12;12.00;65.50
21495;DHT22;10909;53.590;10.054;2023-05-17T05:52:39;12.00;66.10
21495;DHT22;10909;53.590;10.054;2023-05-17T05:55:10;12.00;65.50
21495;DHT22;10909;53.590;10.054;2023-05-17T05:57:44;12.10;65.40
21495;DHT22;10909;53.590;10.054;2023-05-17T06:00:11;12.10;64.40
21495;DHT22;10909;53.590;10.054;2023-05-17T06:02:37;12.10;64.40
21495;DHT22;10909;53.590;10.054;2023-05-17T06:05:03;12.10;64.40
21495;DHT22;10909;53.590;10.054;2023-05-17T06:07:30;12.10;64.80
21495;DHT22;10909;53.590;10.054;2023-05-17T06:09:57;12.20;64.50
21495;DHT22;10909;53.590;10.054;2023-05-17T06:12:23;12.20;63.10
21495;DHT22;10909;53.590;10.054;2023-05-17T06:14:48;12.30;62.90
21495;DHT22;10909;53.590;10.054;2023-05-17T06:17:17;12.30;64.60
21495;DHT22;10909;53.590;10.054;2023-05-17T06:19:47;12.30;63.90
21495;DHT22;10909;53.590;10.054;2023-05-17T06:22:16;12.40;63.50
21495;DHT22;10909;53.590;10.054;2023-05-17T06:24:42;12.40;63.00
21495;DHT22;10909;53.590;10.054;2023-05-17T06:27:08;12.40;61.70
21495;DHT22;10909;53.590;10.054;2023-05-17T06:29:33;12.40;62.60
21495;DHT22;10909;53.590;10.054;2023-05-17T06:32:00;12.40;63.00
21495;DHT22;10909;53.590;10.054;2023-05-17T06:34:27;12.50;62.90
21495;DHT22;10909;53.590;10.054;2023-05-17T06:37:00;12.50;63.30
21495;DHT22;10909;53.590;10.054;2023-05-17T06:39:26;12.60;63.30
21495;DHT22;10909;53.590;10.054;2023-05-17T06:41:54;12.60;63.80
21495;DHT22;10909;53.590;10.054;2023-05-17T06:44:20;12.70;63.80
21495;DHT22;10909;53.590;10.054;2023-05-17T06:46:45;12.70;63.20
21495;DHT22;10909;53.590;10.054;2023-05-17T06:49:11;12.70;61.80
21495;DHT22;10909;53.590;10.054;2023-05-17T06:51:37;12.70;61.40
21495;DHT22;10909;53.590;10.054;2023-05-17T06:54:03;12.70;62.30
21495;DHT22;10909;53.590;10.054;2023-05-17T06:56:28;12.80;62.70
21495;DHT22;10909;53.590;10.054;2023-05-17T06:58:54;12.80;62.70
21495;DHT22;10909;53.590;10.054;2023-05-17T07:01:20;12.80;63.60
21495;DHT22;10909;53.590;10.054;2023-05-17T07:03:45;12.90;61.10
21495;DHT22;10909;53.590;10.054;2023-05-17T07:06:11;12.90;61.40
21495;DHT22;10909;53.590;10.054;2023-05-17T07:08:37;12.90;60.20
21495;DHT22;10909;53.590;10.054;2023-05-17T07:11:03;13.00;60.30
21495;DHT22;10909;53.590;10.054;2023-05-17T07:13:30;12.90;58.30
21495;DHT22;10909;53.590;10.054;2023-05-17T07:15:55;13.00;59.20
21495;DHT22;10909;53.590;10.054;2023-05-17T07:18:21;13.00;59.60
21495;DHT22;10909;53.590;10.054;2023-05-17T07:20:47;13.00;58.70
21495;DHT22;10909;53.590;10.054;2023-05-17T07:23:12;13.00;58.90
21495;DHT22;10909;53.590;10.054;2023-05-17T07:25:38;13.10;59.10
21495;DHT22;10909;53.590;10.054;2023-05-17T07:28:05;13.10;58.20
21495;DHT22;10909;53.590;10.054;2023-05-17T07:30:31;13.10;58.50
21495;DHT22;10909;53.590;10.054;2023-05-17T07:32:56;13.20;58.10
21495;DHT22;10909;53.590;10.054;2023-05-17T07:35:22;13.20;57.80
21495;DHT22;10909;53.590;10.054;2023-05-17T07:37:48;13.20;58.60
21495;DHT22;10909;53.590;10.054;2023-05-17T07:40:13;13.20;59.10
21495;DHT22;10909;53.590;10.054;2023-05-17T07:42:39;13.20;58.60
21495;DHT22;10909;53.590;10.054;2023-05-17T07:45:05;13.20;59.30
21495;DHT22;10909;53.590;10.054;2023-05-17T07:47:31;13.30;59.10
21495;DHT22;10909;53.590;10.054;2023-05-17T07:49:56;13.40;59.10
21495;DHT22;10909;53.590;10.054;2023-05-17T07:52:22;13.40;58.00
21495;DHT22;10909;53.590;10.054;2023-05-17T07:54:48;13.30;56.20
21495;DHT22;10909;53.590;10.054;2023-05-17T07:57:13;13.30;57.50
21495;DHT22;10909;53.590;10.054;2023-05-17T07:59:49;13.30;57.30
21495;DHT22;10909;53.590;10.054;2023-05-17T08:02:15;13.30;57.90
21495;DHT22;10909;53.590;10.054;2023-05-17T08:04:41;13.30;58.30
21495;DHT22;10909;53.590;10.054;2023-05-17T08:07:06;13.30;57.40
21495;DHT22;10909;53.590;10.054;2023-05-17T08:09:32;13.30;58.20
21495;DHT22;10909;53.590;10.054;2023-05-17T08:11:58;13.40;57.10
21495;DHT22;10909;53.590;10.054;2023-05-17T08:14:23;13.50;57.90
21495;DHT22;10909;53.590;10.054;2023-05-17T08:16:50;13.60;56.80
21495;DHT22;10909;53.590;10.054;2023-05-17T08:19:16;13.70;56.50
21495;DHT22;10909;53.590;10.054;2023-05-17T08:21:43;13.70;56.70
21495;DHT22;10909;53.590;10.054;2023-05-17T08:24:10;13.70;56.70
21495;DHT22;10909;53.590;10.054;2023-05-17T08:26:36;13.80;57.40
21495;DHT22;10909;53.590;10.054;2023-05-17T08:29:04;13.80;57.40
21495;DHT22;10909;53.590;10.054;2023-05-17T08:31:31;13.80;57.70
21495;DHT22;10909;53.590;10.054;2023-05-17T08:33:56;13.90;57.60
21495;DHT22;10909;53.590;10.054;2023-05-17T08:40:20;13.90;56.70
21495;DHT22;10909;53.590;10.054;2023-05-17T08:42:49;13.90;57.10
21495;DHT22;10909;53.590;10.054;2023-05-17T08:45:17;13.80;56.90
21495;DHT22;10909;53.590;10.054;2023-05-17T08:47:49;13.80;56.30
21495;DHT22;10909;53.590;10.054;2023-05-17T08:50:19;13.80;57.60
21495;DHT22;10909;53.590;10.054;2023-05-17T08:52:45;13.90;57.10
21495;DHT22;10909;53.590;10.054;2023-05-17T08:55:11;13.90;56.90
21495;DHT22;10909;53.590;10.054;2023-05-17T08:58:18;14.00;54.50
21495;DHT22;10909;53.590;10.054;2023-05-17T09:00:47;14.10;53.00
21495;DHT22;10909;53.590;10.054;2023-05-17T09:03:17;14.00;55.90
21495;DHT22;10909;53.590;10.054;2023-05-17T09:05:48;14.10;56.50
21495;DHT22;10909;53.590;10.054;2023-05-17T09:08:14;14.20;57.40
21495;DHT22;10909;53.590;10.054;2023-05-17T09:10:40;14.30;57.40
21495;DHT22;10909;53.590;10.054;2023-05-17T09:13:11;14.30;56.70
21495;DHT22;10909;53.590;10.054;2023-05-17T09:15:46;14.30;56.40
21495;DHT22;10909;53.590;10.054;2023-05-17T09:18:12;14.40;56.30
21495;DHT22;10909;53.590;10.054;2023-05-17T09:20:39;14.40;55.80
21495;DHT22;10909;53.590;10.054;2023-05-17T09:23:11;14.50;56.80
21495;DHT22;10909;53.590;10.054;2023-05-17T09:25:46;14.50;56.70
21495;DHT22;10909;53.590;10.054;2023-05-17T09:28:12;14.60;56.60
21495;DHT22;10909;53.590;10.054;2023-05-17T09:30:38;14.60;56.00
21495;DHT22;10909;53.590;10.054;2023-05-17T09:33:08;14.70;56.10
21495;DHT22;10909;53.590;10.054;2023-05-17T09:35:36;14.70;55.90
21495;DHT22;10909;53.590;10.054;2023-05-17T09:38:14;14.70;55.60
21495;DHT22;10909;53.590;10.054;2023-05-17T09:40:44;14.80;55.80
21495;DHT22;10909;53.590;10.054;2023-05-17T09:43:11;14.80;55.00
21495;DHT22;10909;53.590;10.054;2023-05-17T09:45:37;14.80;56.70
21495;DHT22;10909;53.590;10.054;2023-05-17T09:48:14;14.90;56.00
21495;DHT22;10909;53.590;10.054;2023-05-17T09:50:59;14.90;55.60
21495;DHT22;10909;53.590;10.054;2023-05-17T09:53:26;15.00;55.40
21495;DHT22;10909;53.590;10.054;2023-05-17T09:55:53;15.00;55.80
21495;DHT22;10909;53.590;10.054;2023-05-17T09:58:20;15.00;55.70
21495;DHT22;10909;53.590;10.054;2023-05-17T10:00:54;14.90;55.00
21495;DHT22;10909;53.590;10.054;2023-05-17T10:03:21;15.00;55.90
21495;DHT22;10909;53.590;10.054;2023-05-17T10:05:50;15.00;55.50
21495;DHT22;10909;53.590;10.054;2023-05-17T10:08:20;15.10;55.40
21495;DHT22;10909;53.590;10.054;2023-05-17T10:10:48;15.20;54.40
21495;DHT22;10909;53.590;10.054;2023-05-17T10:13:38;15.20;55.20
21495;DHT22;10909;53.590;10.054;2023-05-17T10:16:06;15.20;53.30
21495;DHT22;10909;53.590;10.054;2023-05-17T10:18:32;15.20;53.80
21495;DHT22;10909;53.590;10.054;2023-05-17T10:20:58;15.20;53.50
21495;DHT22;10909;53.590;10.054;2023-05-17T10:23:26;15.20;53.40
21495;DHT22;10909;53.590;10.054;2023-05-17T10:25:53;15.20;54.00
21495;DHT22;10909;53.590;10.054;2023-05-17T10:28:20;15.20;53.30
21495;DHT22;10909;53.590;10.054;2023-05-17T10:30:46;15.20;52.70
21495;DHT22;10909;53.590;10.054;2023-05-17T10:33:14;15.20;53.10
21495;DHT22;10909;53.590;10.054;2023-05-17T10:35:43;15.20;54.00
21495;DHT22;10909;53.590;10.054;2023-05-17T10:38:10;15.20;53.40
21495;DHT22;10909;53.590;10.054;2023-05-17T10:40:36;15.30;53.00
21495;DHT22;10909;53.590;10.054;2023-05-17T10:43:04;15.30;53.20
21495;DHT22;10909;53.590;10.054;2023-05-17T10:45:31;15.30;52.70
21495;DHT22;10909;53.590;10.054;2023-05-17T10:48:01;15.30;52.50
21495;DHT22;10909;53.590;10.054;2023-05-17T10:50:30;15.30;52.90
21495;DHT22;10909;53.590;10.054;2023-05-17T10:52:58;15.30;53.90
21495;DHT22;10909;53.590;10.054;2023-05-17T10:55:37;15.30;53.90
21495;DHT22;10909;53.590;10.054;2023-05-17T11:00:44;15.40;54.20
21495;DHT22;10909;53.590;10.054;2023-05-17T11:06:16;15.50;52.80
21495;DHT22;10909;53.590;10.054;2023-05-17T11:08:45;15.40;53.30
21495;DHT22;10909;53.590;10.054;2023-05-17T11:11:33;15.40;53.80
21495;DHT22;10909;53.590;10.054;2023-05-17T11:14:03;15.50;54.60
21495;DHT22;10909;53.590;10.054;2023-05-17T11:16:36;15.50;54.40
21495;DHT22;10909;53.590;10.054;2023-05-17T11:19:07;15.50;54.20
21495;DHT22;10909;53.590;10.054;2023-05-17T11:21:35;15.50;54.90
21495;DHT22;10909;53.590;10.054;2023-05-17T11:24:03;15.50;54.30
21495;DHT22;10909;53.590;10.054;2023-05-17T11:26:35;15.40;53.80
21495;DHT22;10909;53.590;10.054;2023-05-17T11:29:09;15.40;54.80
21495;DHT22;10909;53.590;10.054;2023-05-17T11:31:36;15.40;54.50
21495;DHT22;10909;53.590;10.054;2023-05-17T11:34:03;15.40;55.50
21495;DHT22;10909;53.590;10.054;2023-05-17T11:36:30;15.50;55.60
21495;DHT22;10909;53.590;10.054;2023-05-17T11:39:12;15.50;54.50
21495;DHT22;10909;53.590;10.054;2023-05-17T11:41:39;15.60;54.90
21495;DHT22;10909;53.590;10.054;2023-05-17T11:44:14;15.60;54.30
21495;DHT22;10909;53.590;10.054;2023-05-17T11:46:40;15.70;54.60
21495;DHT22;10909;53.590;10.054;2023-05-17T11:49:07;15.80;54.00
21495;DHT22;10909;53.590;10.054;2023-05-17T11:51:33;15.70;54.70
21495;DHT22;10909;53.590;10.054;2023-05-17T11:53:59;15.80;54.60
21495;DHT22;10909;53.590;10.054;2023-05-17T11:56:33;15.70;53.60
21495;DHT22;10909;53.590;10.054;2023-05-17T11:58:59;15.60;53.10
21495;DHT22;10909;53.590;10.054;2023-05-17T12:01:26;15.50;52.90
21495;DHT22;10909;53.590;10.054;2023-05-17T12:03:55;15.50;54.30
21495;DHT22;10909;53.590;10.054;2023-05-17T12:06:24;15.50;54.80
21495;DHT22;10909;53.590;10.054;2023-05-17T12:08:50;15.50;55.00
21495;DHT22;10909;53.590;10.054;2023-05-17T12:11:16;15.60;55.20
21495;DHT22;10909;53.590;10.054;2023-05-17T12:13:43;15.70;54.90
21495;DHT22;10909;53.590;10.054;2023-05-17T12:16:14;15.90;55.50
21495;DHT22;10909;53.590;10.054;2023-05-17T12:18:42;16.00;56.10
21495;DHT22;10909;53.590;10.054;2023-05-17T12:21:09;16.20;55.10
21495;DHT22;10909;53.590;10.054;2023-05-17T12:23:40;16.30;52.90
21495;DHT22;10909;53.590;10.054;2023-05-17T12:26:18;16.30;54.20
21495;DHT22;10909;53.590;10.054;2023-05-17T12:28:58;16.40;54.00
21495;DHT22;10909;53.590;10.054;2023-05-17T12:31:36;16.50;52.70
21495;DHT22;10909;53.590;10.054;2023-05-17T12:34:06;16.50;52.00
21495;DHT22;10909;53.590;10.054;2023-05-17T12:36:34;16.50;53.00
21495;DHT22;10909;53.590;10.054;2023-05-17T12:39:03;16.60;52.90
21495;DHT22;10909;53.590;10.054;2023-05-17T12:41:30;16.60;53.40
21495;DHT22;10909;53.590;10.054;2023-05-17T12:43:57;16.50;52.70
21495;DHT22;10909;53.590;10.054;2023-05-17T12:46:22;16.50;52.60
21495;DHT22;10909;53.590;10.054;2023-05-17T12:48:52;16.40;53.10
21495;DHT22;10909;53.590;10.054;2023-05-17T12:51:20;16.30;51.50
21495;DHT22;10909;53.590;10.054;2023-05-17T12:53:54;16.30;51.50
21495;DHT22;10909;53.590;10.054;2023-05-17T12:56:23;16.40;53.20
21495;DHT22;10909;53.590;10.054;2023-05-17T12:59:10;16.60;54.10
21495;DHT22;10909;53.590;10.054;2023-05-17T13:04:09;17.30;54.00
21495;DHT22;10909;53.590;10.054;2023-05-17T13:06:59;17.50;53.50
21495;DHT22;10909;53.590;10.054;2023-05-17T13:09:29;17.60;49.20
21495;DHT22;10909;53.590;10.054;2023-05-17T13:12:06;17.70;51.90
21495;DHT22;10909;53.590;10.054;2023-05-17T13:14:42;17.60;51.60
21495;DHT22;10909;53.590;10.054;2023-05-17T13:17:54;17.60;52.20
21495;DHT22;10909;53.590;10.054;2023-05-17T13:19:58;17.70;53.20
21495;DHT22;10909;53.590;10.054;2023-05-17T13:22:27;17.70;53.10
21495;DHT22;10909;53.590;10.054;2023-05-17T13:24:55;17.80;53.10
21495;DHT22;10909;53.590;10.054;2023-05-17T13:27:20;17.90;53.60
21495;DHT22;10909;53.590;10.054;2023-05-17T13:29:47;18.00;51.10
21495;DHT22;10909;53.590;10.054;2023-05-17T13:32:13;18.10;51.40
21495;DHT22;10909;53.590;10.054;2023-05-17T13:34:39;18.10;49.60
21495;DHT22;10909;53.590;10.054;2023-05-17T13:37:07;18.20;50.70
21495;DHT22;10909;53.590;10.054;2023-05-17T13:42:10;18.30;49.50
21495;DHT22;10909;53.590;10.054;2023-05-17T13:44:39;18.30;51.10
21495;DHT22;10909;53.590;10.054;2023-05-17T13:47:10;18.20;50.10
21495;DHT22;10909;53.590;10.054;2023-05-17T13:49:41;18.20;49.60
21495;DHT22;10909;53.590;10.054;2023-05-17T13:52:11;18.10;50.00
21495;DHT22;10909;53.590;10.054;2023-05-17T13:54:41;17.90;50.00
21495;DHT22;10909;53.590;10.054;2023-05-17T13:57:11;17.80;50.70
21495;DHT22;10909;53.590;10.054;2023-05-17T13:59:37;17.80;51.70
21495;DHT22;10909;53.590;10.054;2023-05-17T14:02:11;17.80;51.20
21495;DHT22;10909;53.590;10.054;2023-05-17T14:04:46;17.90;50.60
21495;DHT22;10909;53.590;10.054;2023-05-17T14:07:13;17.90;49.90
21495;DHT22;10909;53.590;10.054;2023-05-17T14:09:40;18.00;51.40
21495;DHT22;10909;53.590;10.054;2023-05-17T14:12:06;18.20;51.50
21495;DHT22;10909;53.590;10.054;2023-05-17T14:14:31;18.30;50.70
21495;DHT22;10909;53.590;10.054;2023-05-17T14:16:57;18.50;51.10
21495;DHT22;10909;53.590;10.054;2023-05-17T14:19:23;18.60;51.50
21495;DHT22;10909;53.590;10.054;2023-05-17T14:21:49;18.80;51.30
21495;DHT22;10909;53.590;10.054;2023-05-17T14:24:16;19.00;51.90
21495;DHT22;10909;53.590;10.054;2023-05-17T14:26:45;19.30;51.10
21495;DHT22;10909;53.590;10.054;2023-05-17T14:29:10;19.40;51.60
21495;DHT22;10909;53.590;10.054;2023-05-17T14:31:36;19.50;49.50
21495;DHT22;10909;53.590;10.054;2023-05-17T14:34:02;19.50;47.40
21495;DHT22;10909;53.590;10.054;2023-05-17T14:36:28;19.30;45.50
21495;DHT22;10909;53.590;10.054;2023-05-17T14:38:55;19.10;47.50
21495;DHT22;10909;53.590;10.054;2023-05-17T14:41:22;18.80;46.70
21495;DHT22;10909;53.590;10.054;2023-05-17T14:43:48;18.60;47.00
21495;DHT22;10909;53.590;10.054;2023-05-17T14:46:14;18.40;47.60
21495;DHT22;10909;53.590;10.054;2023-05-17T14:48:40;18.30;47.80
21495;DHT22;10909;53.590;10.054;2023-05-17T14:51:06;18.30;48.30
21495;DHT22;10909;53.590;10.054;2023-05-17T14:53:31;18.50;49.50
21495;DHT22;10909;53.590;10.054;2023-05-17T14:55:58;18.60;48.50
21495;DHT22;10909;53.590;10.054;2023-05-17T14:58:26;18.60;48.20
21495;DHT22;10909;53.590;10.054;2023-05-17T15:00:53;18.60;48.70
21495;DHT22;10909;53.590;10.054;2023-05-17T15:03:22;18.50;48.80
21495;DHT22;10909;53.590;10.054;2023-05-17T15:05:55;18.50;47.40
21495;DHT22;10909;53.590;10.054;2023-05-17T15:08:21;18.30;48.10
21495;DHT22;10909;53.590;10.054;2023-05-17T15:10:48;18.20;47.90
21495;DHT22;10909;53.590;10.054;2023-05-17T15:13:14;18.10;47.90
21495;DHT22;10909;53.590;10.054;2023-05-17T15:15:42;17.90;48.80
21495;DHT22;10909;53.590;10.054;2023-05-17T15:18:10;17.80;49.10
21495;DHT22;10909;53.590;10.054;2023-05-17T15:20:40;17.80;49.20
21495;DHT22;10909;53.590;10.054;2023-05-17T15:23:10;17.80;50.20
21495;DHT22;10909;53.590;10.054;2023-05-17T15:25:38;17.90;50.40
21495;DHT22;10909;53.590;10.054;2023-05-17T15:28:08;18.00;49.20
21495;DHT22;10909;53.590;10.054;2023-05-17T15:30:40;17.90;48.60
21495;DHT22;10909;53.590;10.054;2023-05-17T15:33:07;17.90;48.70
21495;DHT22;10909;53.590;10.054;2023-05-17T15:35:32;17.80;47.60
21495;DHT22;10909;53.590;10.054;2023-05-17T15:38:02;17.60;48.30
21495;DHT22;10909;53.590;10.054;2023-05-17T15:40:30;17.50;48.60
21495;DHT22;10909;53.590;10.054;2023-05-17T15:42:56;17.30;49.30
21495;DHT22;10909;53.590;10.054;2023-05-17T15:45:21;17.30;49.00
21495;DHT22;10909;53.590;10.054;2023-05-17T15:47:50;17.20;49.10
21495;DHT22;10909;53.590;10.054;2023-05-17T15:50:21;17.20;49.20
21495;DHT22;10909;53.590;10.054;2023-05-17T15:52:47;17.10;49.20